Terminal Aerodrome Forecast
Issued by NWS Cleveland, OH

Home | Current Version | Previous Version | Graphics & Text | Print | Product List | Glossary On
Versions: 1 2 3 4 5 6 7 8 9 10 11 12 13 14 15 16
000
FTUS41 KCLE 291728
TAFYNG
TAF
KYNG 291728Z 2918/3018 21006KT P6SM BKN120 OVC200
     FM292200 18008KT P6SM -SHRA OVC080
     FM300000 11005KT 6SM SHRA OVC035
     FM300600 15009KT 5SM BR OVC007
     FM300900 18006KT 4SM BR OVC007=

USA.gov is the U.S. government's official web portal to all federal, state and local government web resources and services.